Keene, Ohio
Current Conditions -  °F | °C
As of 10:53 PM on Tuesday 21 Oct 2014 (Local Time) from KPHD Reporting Station
Haze Haze  
Wind Chill: 43°   Ceiling: 600
Heat Index: 47°   Visibility: 4mi
Dew Point: 44°   Wind: 8mph
Humidity: 90%   Direction: 310°NW
Pressure: 30.09"   Gusts: NA
Location:  40.35°N, 81.87°W
Report Text: KPHD 220253Z AUTO 31007KT 4SM BR OVC006 08/07 A3009 RMK AO2 RAB11E20 CIG 005V011 SLP191 P0000 60000 T00830067 53012
Loading
Personal Weather Stations






























Interactive Weather Map
Tropical Storm Tracking
New forecast layout! Learn more

10-Day Weather Forecast

Advertisements
Track Severe Weather on mobile